createdAt,value
2022-12-23T00:00:06.580Z,5.53
2022-12-23T00:05:05.721Z,5.57
2022-12-23T00:10:05.812Z,5.63
2022-12-23T00:15:05.803Z,5.67
2022-12-23T00:20:10.329Z,5.72
2022-12-23T00:25:05.408Z,5.73
2022-12-23T00:30:08.727Z,5.79
2022-12-23T00:35:05.913Z,5.83
2022-12-23T00:40:16.092Z,5.83
2022-12-23T00:45:14.530Z,5.86
2022-12-23T00:50:06.906Z,5.88
2022-12-23T00:55:06.179Z,5.94
2022-12-23T01:00:07.602Z,5.95
2022-12-23T01:05:15.850Z,5.97
2022-12-23T01:10:05.353Z,6.00
2022-12-23T01:15:06.637Z,5.98
2022-12-23T01:20:06.804Z,5.94
2022-12-23T01:25:06.107Z,5.93
2022-12-23T01:30:06.536Z,5.92
2022-12-23T01:35:05.643Z,5.95
2022-12-23T01:40:06.659Z,5.95
2022-12-23T01:45:13.757Z,5.89
2022-12-23T01:50:10.607Z,5.92
2022-12-23T01:55:05.882Z,5.94
2022-12-23T02:00:16.434Z,5.95
2022-12-23T02:05:06.575Z,5.93
2022-12-23T02:10:07.346Z,5.95
2022-12-23T02:15:23.583Z,5.92
2022-12-23T02:20:24.967Z,5.97
2022-12-23T02:25:23.630Z,5.97
2022-12-23T02:30:21.571Z,5.98
2022-12-23T02:35:11.710Z,5.97
2022-12-23T02:40:11.998Z,6.01
2022-12-23T02:45:10.715Z,6.01
2022-12-23T02:50:13.312Z,6.01
2022-12-23T02:55:10.648Z,6.03
2022-12-23T03:00:07.045Z,6.03
2022-12-23T03:05:05.725Z,6.05
2022-12-23T03:10:12.717Z,6.05
2022-12-23T03:15:16.867Z,6.07
2022-12-23T03:20:11.866Z,6.08
2022-12-23T03:25:09.769Z,6.11
2022-12-23T03:30:08.006Z,6.11
2022-12-23T03:35:08.229Z,6.17
2022-12-23T03:40:11.043Z,6.19
2022-12-23T03:45:37.400Z,6.21
2022-12-23T03:50:09.994Z,6.25
2022-12-23T03:55:10.963Z,6.25
2022-12-23T04:00:06.496Z,6.29
2022-12-23T04:05:15.364Z,6.31
2022-12-23T04:10:08.434Z,6.33
2022-12-23T04:15:12.319Z,6.30
2022-12-23T04:20:06.366Z,6.26
2022-12-23T04:25:05.675Z,6.26
2022-12-23T04:30:07.143Z,6.24
2022-12-23T04:35:05.598Z,6.21
2022-12-23T04:40:06.066Z,6.17
2022-12-23T04:45:06.387Z,6.08
2022-12-23T04:50:06.659Z,6.02
2022-12-23T04:55:05.603Z,6.01
2022-12-23T05:00:06.037Z,5.93
2022-12-23T05:05:05.579Z,5.93
2022-12-23T05:10:05.610Z,5.90
2022-12-23T05:15:07.220Z,5.81
2022-12-23T05:20:05.768Z,5.79
2022-12-23T05:25:06.328Z,5.78
2022-12-23T05:30:06.386Z,5.73
2022-12-23T05:35:06.243Z,5.74
2022-12-23T05:40:05.896Z,5.69
2022-12-23T05:45:08.568Z,5.71
2022-12-23T05:50:05.760Z,5.67
2022-12-23T05:55:06.136Z,5.68
2022-12-23T06:00:06.049Z,5.72
2022-12-23T06:05:05.621Z,5.71
2022-12-23T06:10:07.109Z,5.64
2022-12-23T06:15:07.698Z,5.60
2022-12-23T06:20:05.830Z,5.58
2022-12-23T06:25:05.659Z,5.56
2022-12-23T06:30:06.489Z,5.49
2022-12-23T06:35:05.616Z,5.47
2022-12-23T06:40:05.718Z,5.50
2022-12-23T06:45:05.625Z,5.52
2022-12-23T06:50:05.735Z,5.51
2022-12-23T06:55:05.267Z,5.56
2022-12-23T07:00:07.489Z,5.57
2022-12-23T07:05:05.357Z,5.53
2022-12-23T07:10:06.818Z,5.57
2022-12-23T07:15:06.881Z,5.99
2022-12-23T07:20:05.596Z,6.43
2022-12-23T07:25:05.601Z,6.28
2022-12-23T07:30:05.946Z,6.32
2022-12-23T07:35:05.424Z,6.35
2022-12-23T07:40:08.832Z,6.31
2022-12-23T07:45:06.202Z,6.19
2022-12-23T07:50:05.714Z,6.15
2022-12-23T07:55:05.694Z,6.16
2022-12-23T08:00:06.973Z,6.17
2022-12-23T08:05:06.330Z,6.07
2022-12-23T08:10:05.928Z,5.99
2022-12-23T08:15:07.031Z,6.01
2022-12-23T08:20:05.827Z,6.02
2022-12-23T08:25:05.799Z,6.02
2022-12-23T08:30:05.987Z,6.15
2022-12-23T08:35:05.418Z,6.15
2022-12-23T08:40:05.831Z,6.25
2022-12-23T08:45:05.572Z,6.35
2022-12-23T08:50:05.468Z,6.45
2022-12-23T08:55:05.138Z,6.52
2022-12-23T09:00:06.842Z,6.46
2022-12-23T09:05:04.909Z,6.54
2022-12-23T09:10:05.687Z,6.71
2022-12-23T09:15:06.226Z,6.72
2022-12-23T09:20:05.916Z,6.84
2022-12-23T09:25:05.545Z,6.86
2022-12-23T09:30:05.748Z,6.75
2022-12-23T09:35:05.379Z,6.69
2022-12-23T09:40:06.438Z,6.66
2022-12-23T09:45:15.972Z,6.64
2022-12-23T09:50:19.203Z,6.60
2022-12-23T09:55:10.175Z,6.62
2022-12-23T10:00:09.971Z,6.49
2022-12-23T10:05:15.129Z,6.53
2022-12-23T10:10:13.794Z,6.59
2022-12-23T10:15:17.916Z,6.67
2022-12-23T10:20:11.825Z,6.65
2022-12-23T10:25:13.302Z,6.58
2022-12-23T10:30:34.334Z,6.58
2022-12-23T10:35:13.984Z,6.49
2022-12-23T10:40:16.425Z,6.49
2022-12-23T10:45:21.227Z,6.36
2022-12-23T10:50:25.018Z,6.41
2022-12-23T10:55:05.098Z,6.35
2022-12-23T11:00:17.322Z,6.25
2022-12-23T11:05:13.230Z,6.18
2022-12-23T11:10:12.143Z,6.26
2022-12-23T11:15:15.791Z,6.29
2022-12-23T11:20:11.336Z,6.33
2022-12-23T11:25:24.212Z,6.38
2022-12-23T11:30:05.550Z,6.47
2022-12-23T11:35:05.498Z,6.41
2022-12-23T11:40:13.894Z,6.47
2022-12-23T11:45:05.940Z,6.39
2022-12-23T11:50:24.763Z,6.44
2022-12-23T11:55:07.153Z,6.35
2022-12-23T12:00:07.549Z,6.41
2022-12-23T12:05:19.088Z,6.29
2022-12-23T12:10:14.278Z,6.31
2022-12-23T12:15:22.125Z,6.31
2022-12-23T12:20:11.646Z,6.18
2022-12-23T12:25:15.778Z,6.15
2022-12-23T12:30:12.821Z,6.12
2022-12-23T12:35:10.738Z,6.15
2022-12-23T12:40:18.890Z,6.17
2022-12-23T12:45:13.333Z,6.19
2022-12-23T12:50:12.441Z,6.14
2022-12-23T12:55:13.783Z,6.14
2022-12-23T13:00:12.615Z,6.14
2022-12-23T13:05:22.959Z,6.05
2022-12-23T13:10:15.700Z,5.99
2022-12-23T13:15:17.956Z,5.96
2022-12-23T13:20:15.358Z,5.93
2022-12-23T13:25:11.134Z,5.90
2022-12-23T13:30:12.200Z,5.91
2022-12-23T13:35:23.993Z,5.91
2022-12-23T13:40:18.713Z,5.91
2022-12-23T13:45:13.121Z,5.96
2022-12-23T13:50:12.392Z,5.98
2022-12-23T13:55:14.410Z,6.03
2022-12-23T14:00:23.887Z,6.07
2022-12-23T14:05:16.877Z,6.13
2022-12-23T14:10:20.873Z,6.19
2022-12-23T14:15:23.441Z,6.25
2022-12-23T14:20:20.220Z,6.32
2022-12-23T14:25:25.829Z,6.37
2022-12-23T14:30:12.006Z,6.44
2022-12-23T14:35:18.171Z,6.47
2022-12-23T14:40:24.502Z,6.50
2022-12-23T14:45:24.343Z,6.50
2022-12-23T14:50:24.370Z,6.55
2022-12-23T14:55:31.005Z,6.56
2022-12-23T15:00:05.332Z,6.58
2022-12-23T15:05:05.168Z,6.58
2022-12-23T15:10:06.472Z,6.63
2022-12-23T15:15:06.423Z,6.63
2022-12-23T15:20:13.446Z,6.59
2022-12-23T15:25:14.899Z,6.58
2022-12-23T15:30:11.178Z,6.57
2022-12-23T15:35:05.694Z,6.57
2022-12-23T15:40:12.521Z,6.56
2022-12-23T15:45:24.426Z,6.59
2022-12-23T15:50:12.194Z,6.61
2022-12-23T15:55:12.794Z,6.62
2022-12-23T16:00:18.095Z,6.67
2022-12-23T16:05:05.316Z,6.68
2022-12-23T16:10:13.506Z,6.73
2022-12-23T16:15:18.829Z,6.74
2022-12-23T16:20:19.172Z,6.76
2022-12-23T16:25:11.431Z,6.76
2022-12-23T16:30:13.305Z,6.78
2022-12-23T16:35:10.557Z,6.81
2022-12-23T16:40:12.447Z,6.80
2022-12-23T16:45:06.041Z,6.83
2022-12-23T16:50:05.595Z,6.87
2022-12-23T16:55:11.353Z,6.90
2022-12-23T17:00:06.073Z,6.86
2022-12-23T17:05:05.466Z,6.87
2022-12-23T17:10:05.295Z,6.93
2022-12-23T17:15:06.337Z,6.92
2022-12-23T17:20:05.478Z,6.93
2022-12-23T17:25:05.013Z,6.93
2022-12-23T17:30:05.697Z,6.95
2022-12-23T17:35:04.607Z,6.98
2022-12-23T17:40:05.315Z,7.03
2022-12-23T17:45:07.096Z,7.10
2022-12-23T17:50:05.210Z,7.07
2022-12-23T17:55:05.431Z,7.12
2022-12-23T18:00:06.072Z,7.13
2022-12-23T18:05:19.035Z,7.13
2022-12-23T18:10:04.883Z,7.07
2022-12-23T18:15:07.125Z,6.99
2022-12-23T18:20:05.140Z,6.99
2022-12-23T18:25:04.998Z,7.05
2022-12-23T18:30:05.772Z,7.03
2022-12-23T18:35:24.281Z,6.95
2022-12-23T18:40:05.928Z,6.89
2022-12-23T18:45:22.619Z,6.79
2022-12-23T18:50:05.400Z,6.68
2022-12-23T18:55:05.664Z,6.70
2022-12-23T19:00:07.318Z,6.73
2022-12-23T19:05:06.343Z,6.67
2022-12-23T19:10:05.342Z,6.61
2022-12-23T19:15:05.307Z,6.56
2022-12-23T19:20:05.153Z,6.56
2022-12-23T19:25:06.867Z,6.49
2022-12-23T19:30:08.321Z,6.50
2022-12-23T19:35:05.257Z,6.44
2022-12-23T19:40:06.149Z,6.41
2022-12-23T19:45:07.120Z,6.37
2022-12-23T19:50:06.210Z,6.28
2022-12-23T19:55:04.816Z,6.29
2022-12-23T20:00:05.435Z,6.27
2022-12-23T20:05:04.938Z,6.19
2022-12-23T20:10:05.804Z,6.12
2022-12-23T20:15:05.122Z,6.17
2022-12-23T20:20:06.015Z,6.18
2022-12-23T20:25:04.729Z,6.18
2022-12-23T20:30:05.658Z,6.16
2022-12-23T20:35:04.920Z,6.17
2022-12-23T20:40:06.318Z,6.09
2022-12-23T20:45:05.729Z,6.05
2022-12-23T20:50:05.723Z,6.02
2022-12-23T20:55:05.531Z,6.02
2022-12-23T21:00:06.660Z,6.06
2022-12-23T21:05:04.381Z,6.05
2022-12-23T21:10:04.826Z,5.99
2022-12-23T21:15:04.829Z,6.01
2022-12-23T21:20:07.708Z,5.99
2022-12-23T21:25:05.278Z,5.98
2022-12-23T21:30:05.435Z,6.00
2022-12-23T21:35:05.182Z,5.93
2022-12-23T21:40:05.350Z,5.88
2022-12-23T21:45:05.223Z,5.88
2022-12-23T21:50:05.452Z,5.86
2022-12-23T21:55:04.320Z,5.81
2022-12-23T22:00:05.675Z,5.78
2022-12-23T22:05:05.972Z,5.80
2022-12-23T22:10:05.558Z,5.77
2022-12-23T22:15:11.323Z,5.80
2022-12-23T22:20:05.155Z,5.81
2022-12-23T22:25:04.681Z,5.78
2022-12-23T22:30:05.484Z,5.77
2022-12-23T22:35:05.011Z,5.81
2022-12-23T22:40:04.935Z,5.80
2022-12-23T22:45:05.511Z,5.78
2022-12-23T22:50:05.112Z,5.81
2022-12-23T22:55:04.868Z,5.80
2022-12-23T23:00:11.961Z,5.82
2022-12-23T23:05:09.225Z,5.76
2022-12-23T23:10:05.479Z,5.70
2022-12-23T23:15:05.115Z,5.78
2022-12-23T23:20:04.951Z,5.76
2022-12-23T23:25:04.668Z,5.66
2022-12-23T23:30:04.994Z,5.65
2022-12-23T23:35:10.527Z,5.80
2022-12-23T23:40:05.561Z,5.80
2022-12-23T23:45:06.417Z,5.86
2022-12-23T23:50:05.634Z,5.84
2022-12-23T23:55:04.687Z,5.83
